createdAt,value
2023-09-05T00:02:49.334Z,100.00
2023-09-05T00:07:52.249Z,100.00
2023-09-05T00:12:54.927Z,100.00
2023-09-05T00:17:59.043Z,100.00
2023-09-05T00:23:09.924Z,100.00
2023-09-05T00:28:14.622Z,100.00
2023-09-05T00:33:18.914Z,100.00
2023-09-05T00:38:23.822Z,100.00
2023-09-05T00:43:27.895Z,100.00
2023-09-05T00:48:38.459Z,100.00
2023-09-05T00:53:41.687Z,100.00
2023-09-05T00:58:46.749Z,100.00
2023-09-05T01:03:52.598Z,100.00
2023-09-05T01:09:10.005Z,100.00
2023-09-05T01:14:19.373Z,100.00
2023-09-05T01:19:29.537Z,100.00
2023-09-05T01:24:36.840Z,100.00
2023-09-05T01:29:40.628Z,100.00
2023-09-05T01:34:47.264Z,100.00
2023-09-05T01:39:51.706Z,100.00
2023-09-05T01:44:55.020Z,100.00
2023-09-05T01:49:57.784Z,100.00
2023-09-05T01:55:02.067Z,100.00
2023-09-05T02:00:07.008Z,100.00
2023-09-05T02:05:16.554Z,100.00
2023-09-05T02:10:20.636Z,100.00
2023-09-05T02:15:23.390Z,100.00
2023-09-05T02:20:27.380Z,100.00
2023-09-05T02:25:37.544Z,100.00
2023-09-05T02:30:44.900Z,100.00
2023-09-05T02:35:47.731Z,100.00
2023-09-05T02:40:53.100Z,100.00
2023-09-05T02:45:58.066Z,100.00
2023-09-05T02:51:05.696Z,100.00
2023-09-05T02:56:12.840Z,100.00
2023-09-05T03:01:17.282Z,100.00
2023-09-05T03:06:20.036Z,100.00
2023-09-05T03:11:26.683Z,100.00
2023-09-05T03:16:30.433Z,100.00
2023-09-05T03:21:33.662Z,100.00
2023-09-05T03:26:38.031Z,100.00
2023-09-05T03:31:40.915Z,100.00
2023-09-05T03:36:46.630Z,100.00
2023-09-05T03:41:50.739Z,100.00
2023-09-05T03:46:53.479Z,100.00
2023-09-05T03:51:59.469Z,100.00
2023-09-05T03:57:03.866Z,100.00
2023-09-05T04:02:08.975Z,100.00
2023-09-05T04:07:15.605Z,100.00
2023-09-05T04:12:21.004Z,100.00
2023-09-05T04:17:25.396Z,100.00
2023-09-05T04:22:29.153Z,100.00
2023-09-05T04:27:33.219Z,100.00
2023-09-05T04:32:38.431Z,100.00
2023-09-05T04:37:41.831Z,100.00
2023-09-05T04:42:46.085Z,100.00
2023-09-05T04:47:48.888Z,100.00
2023-09-05T04:52:52.789Z,100.00
2023-09-05T04:57:56.857Z,100.00
2023-09-05T05:03:00.641Z,100.00
2023-09-05T05:08:03.408Z,100.00
2023-09-05T05:13:07.473Z,100.00
2023-09-05T05:18:10.379Z,100.00
2023-09-05T05:23:14.250Z,100.00
2023-09-05T05:28:18.503Z,100.00
2023-09-05T05:33:21.301Z,100.00
2023-09-05T05:38:24.552Z,100.00
2023-09-05T05:43:30.425Z,100.00
2023-09-05T05:48:35.951Z,100.00
2023-09-05T05:53:39.219Z,100.00
2023-09-05T05:58:46.515Z,100.00
2023-09-05T06:03:49.441Z,100.00
2023-09-05T06:08:52.390Z,100.00
2023-09-05T06:13:56.518Z,100.00
2023-09-05T06:19:02.368Z,100.00
2023-09-05T06:24:05.721Z,100.00
2023-09-05T06:29:10.878Z,100.00
2023-09-05T06:34:20.508Z,100.00
2023-09-05T06:39:23.235Z,100.00
2023-09-05T06:44:30.433Z,100.00
2023-09-05T06:49:33.559Z,100.00
2023-09-05T06:54:36.657Z,100.00
2023-09-05T06:59:40.769Z,100.00
2023-09-05T07:04:43.503Z,100.00
2023-09-05T07:09:47.564Z,100.00
2023-09-05T07:14:51.958Z,100.00
2023-09-05T07:19:54.653Z,100.00
2023-09-05T07:25:00.350Z,100.00
2023-09-05T07:30:04.848Z,100.00
2023-09-05T07:35:07.852Z,97.47
2023-09-05T07:40:12.620Z,95.06
2023-09-05T07:45:16.920Z,92.54
2023-09-05T07:50:20.186Z,92.45
2023-09-05T07:55:23.581Z,89.09
2023-09-05T08:00:28.088Z,88.31
2023-09-05T08:05:32.453Z,87.10
2023-09-05T08:10:35.872Z,85.42
2023-09-05T08:15:40.204Z,86.78
2023-09-05T08:20:44.017Z,85.40
2023-09-05T08:25:51.957Z,85.88
2023-09-05T08:31:15.728Z,86.15
2023-09-05T08:36:20.758Z,85.34
2023-09-05T08:41:23.600Z,84.33
2023-09-05T08:46:28.500Z,83.60
2023-09-05T08:51:34.192Z,84.96
2023-09-05T08:56:36.911Z,83.61
2023-09-05T09:01:45.086Z,82.30
2023-09-05T09:06:55.978Z,84.57
2023-09-05T09:12:01.593Z,82.09
2023-09-05T09:17:07.665Z,82.35
2023-09-05T09:22:10.672Z,81.11
2023-09-05T09:27:13.951Z,79.87
2023-09-05T09:32:22.079Z,80.51
2023-09-05T09:37:26.693Z,78.14
2023-09-05T09:42:30.068Z,77.49
2023-09-05T09:47:36.312Z,79.11
2023-09-05T09:52:45.083Z,78.69
2023-09-05T09:57:57.252Z,79.96
2023-09-05T10:03:05.259Z,79.65
2023-09-05T10:08:08.375Z,78.59
2023-09-05T10:13:11.941Z,77.90
2023-09-05T10:18:18.646Z,79.73
2023-09-05T10:23:21.575Z,78.24
2023-09-05T10:28:29.009Z,78.17
2023-09-05T10:33:38.712Z,78.15
2023-09-05T10:38:41.533Z,76.84
2023-09-05T10:43:56.110Z,81.73
2023-09-05T10:49:14.108Z,77.53
2023-09-05T10:54:30.047Z,76.72
2023-09-05T10:59:32.858Z,77.87
2023-09-05T11:04:40.034Z,76.90
2023-09-05T11:09:51.195Z,83.04
2023-09-05T11:14:55.425Z,84.25
2023-09-05T11:19:59.691Z,84.75
2023-09-05T11:25:05.189Z,85.53
2023-09-05T11:30:11.182Z,85.94
2023-09-05T11:35:15.679Z,83.56
2023-09-05T11:40:23.919Z,82.20
2023-09-05T11:45:26.971Z,89.31
2023-09-05T11:50:32.948Z,90.09
2023-09-05T11:55:36.010Z,86.58
2023-09-05T12:00:45.549Z,81.23
2023-09-05T12:05:52.618Z,84.60
2023-09-05T12:11:00.867Z,80.46
2023-09-05T12:16:04.634Z,78.96
2023-09-05T12:21:14.534Z,74.12
2023-09-05T12:26:17.480Z,75.94
2023-09-05T12:31:22.275Z,77.27
2023-09-05T12:36:30.614Z,75.07
2023-09-05T12:41:35.822Z,72.44
2023-09-05T12:46:39.147Z,70.90
2023-09-05T12:51:46.648Z,71.74
2023-09-05T12:57:31.342Z,70.82
2023-09-05T13:02:48.713Z,69.08
2023-09-05T13:07:53.417Z,72.93
2023-09-05T13:13:05.508Z,74.64
2023-09-05T13:18:09.239Z,68.99
2023-09-05T13:23:22.999Z,71.32
2023-09-05T13:28:28.911Z,71.88
2023-09-05T13:33:43.573Z,67.52
2023-09-05T13:38:49.348Z,69.31
2023-09-05T13:43:52.780Z,66.36
2023-09-05T13:48:55.852Z,69.70
2023-09-05T13:54:00.753Z,69.79
2023-09-05T13:59:03.702Z,68.66
2023-09-05T14:04:12.772Z,65.53
2023-09-05T14:09:19.491Z,66.50
2023-09-05T14:14:22.268Z,63.57
2023-09-05T14:19:26.397Z,64.14
2023-09-05T14:24:33.367Z,64.20
2023-09-05T14:29:38.135Z,63.12
2023-09-05T14:35:03.425Z,60.95
2023-09-05T14:40:13.787Z,62.58
2023-09-05T14:45:16.671Z,62.72
2023-09-05T14:50:19.971Z,64.51
2023-09-05T14:55:26.832Z,65.43
2023-09-05T15:00:30.577Z,67.68
2023-09-05T15:05:33.529Z,67.44
2023-09-05T15:10:38.607Z,68.59
2023-09-05T15:15:41.557Z,68.22
2023-09-05T15:20:51.512Z,68.72
2023-09-05T15:25:58.296Z,73.15
2023-09-05T15:31:06.758Z,72.87
2023-09-05T15:36:10.314Z,74.65
2023-09-05T15:41:16.931Z,73.83
2023-09-05T15:46:22.752Z,73.18
2023-09-05T15:51:26.343Z,73.96
2023-09-05T15:56:31.073Z,74.30
2023-09-05T16:01:34.163Z,74.60
2023-09-05T16:06:37.741Z,75.64
2023-09-05T16:11:43.178Z,75.72
2023-09-05T16:16:54.232Z,76.66
2023-09-05T16:21:57.020Z,76.47
2023-09-05T16:27:03.485Z,76.71
2023-09-05T16:32:07.644Z,77.52
2023-09-05T16:37:19.429Z,78.38
2023-09-05T16:42:26.402Z,78.98
2023-09-05T16:47:30.211Z,79.64
2023-09-05T16:52:32.913Z,79.95
2023-09-05T16:57:37.287Z,80.75
2023-09-05T17:02:42.846Z,81.03
2023-09-05T17:07:48.022Z,81.85
2023-09-05T17:12:52.471Z,82.51
2023-09-05T17:17:57.373Z,83.31
2023-09-05T17:23:00.122Z,83.18
2023-09-05T17:28:05.209Z,82.66
2023-09-05T17:33:13.346Z,83.46
2023-09-05T17:38:18.047Z,84.53
2023-09-05T17:43:31.038Z,84.62
2023-09-05T17:49:05.595Z,86.21
2023-09-05T17:54:18.809Z,90.58
2023-09-05T17:59:54.904Z,91.23
2023-09-05T18:05:22.909Z,90.99
2023-09-05T18:10:33.886Z,92.33
2023-09-05T18:15:54.200Z,91.58
2023-09-05T18:21:55.715Z,91.17
2023-09-05T18:28:38.764Z,90.21
2023-09-05T18:34:41.441Z,90.58
2023-09-05T18:45:45.101Z,90.25
2023-09-05T18:50:51.787Z,91.42
2023-09-05T18:55:55.678Z,90.54
2023-09-05T19:00:58.620Z,90.67
2023-09-05T19:06:07.057Z,89.34
2023-09-05T19:11:10.813Z,89.55
2023-09-05T19:16:23.899Z,88.91
2023-09-05T19:21:32.227Z,88.04
2023-09-05T19:26:35.605Z,88.12
2023-09-05T19:31:39.469Z,88.01
2023-09-05T19:36:47.054Z,87.54
2023-09-05T19:41:53.778Z,87.84
2023-09-05T19:46:56.867Z,88.13
2023-09-05T19:58:38.309Z,87.18
2023-09-05T20:03:53.715Z,86.75
2023-09-05T20:09:10.423Z,87.06
2023-09-05T20:14:42.102Z,88.80
2023-09-05T20:20:18.382Z,88.23
2023-09-05T20:26:08.392Z,87.56
2023-09-05T20:31:29.188Z,89.08
2023-09-05T20:36:32.415Z,90.69
2023-09-05T20:41:35.609Z,90.82
2023-09-05T20:46:41.457Z,91.39
2023-09-05T20:51:44.332Z,91.47
2023-09-05T20:57:07.798Z,91.82
2023-09-05T21:02:27.654Z,91.34
2023-09-05T21:07:31.938Z,92.33
2023-09-05T21:12:40.831Z,91.64
2023-09-05T21:17:54.070Z,91.82
2023-09-05T21:22:57.343Z,91.73
2023-09-05T21:28:01.181Z,93.49
2023-09-05T21:33:05.735Z,94.23
2023-09-05T21:38:09.005Z,96.21
2023-09-05T21:50:35.327Z,100.00
2023-09-05T21:55:38.386Z,100.00
2023-09-05T22:00:43.618Z,100.00
2023-09-05T22:05:58.376Z,100.00
2023-09-05T22:11:01.584Z,100.00
2023-09-05T22:16:06.648Z,100.00
2023-09-05T22:21:11.422Z,100.00
2023-09-05T22:26:15.339Z,100.00
2023-09-05T22:31:18.340Z,100.00
2023-09-05T22:36:24.126Z,100.00
2023-09-05T22:41:26.863Z,100.00
2023-09-05T22:46:29.733Z,100.00
2023-09-05T22:51:34.058Z,100.00
2023-09-05T22:56:46.425Z,100.00
2023-09-05T23:01:49.229Z,100.00
2023-09-05T23:06:56.924Z,100.00
2023-09-05T23:11:59.701Z,100.00
2023-09-05T23:17:05.367Z,100.00
2023-09-05T23:22:10.531Z,100.00
2023-09-05T23:27:13.437Z,100.00
2023-09-05T23:32:18.390Z,100.00
2023-09-05T23:37:22.607Z,100.00
2023-09-05T23:42:27.317Z,100.00
2023-09-05T23:47:30.128Z,100.00
2023-09-05T23:52:34.691Z,100.00
2023-09-05T23:57:38.237Z,100.00
